CFG2AW EDDL-LIMJ
Flight info
| Callsign | CFG2AW |
|---|---|
| Flight time | N/A |
| Altitude | 35000 |
| Route | DODEN1T/23L DODEN Y852 NATOR DCT TRA DCT RIPUS DCT GERSA DCT SOSON DCT ODINA DCT SRN DCT VOG/N0383F190 M858 RUCFO |
| Aircraft | A321/M-SDE3FGHIRWY/LB1 |
Departure
| Time | N/A |
|---|---|
| Airport | Düsseldorf Airport (EDDL) |
Arrival
| Time | 2026-05-03 20:34 |
|---|---|
| Airport | Genoa Cristoforo Colombo Airport (LIMJ) |
| Time | Latitude | Longitude | Altitude | Speed | Heading |
|---|---|---|---|---|---|
| 2026-05-03 20:15 | 44.36013 | 9.07349 | 12611 ft | 267 kts | 186° |
| 2026-05-03 20:15 | 44.34193 | 9.07110 | 12261 ft | 265 kts | 186° |
| 2026-05-03 20:15 | 44.32359 | 9.06867 | 11909 ft | 264 kts | 186° |
| 2026-05-03 20:15 | 44.30532 | 9.06679 | 11551 ft | 263 kts | 179° |
| 2026-05-03 20:16 | 44.28731 | 9.07118 | 11221 ft | 264 kts | 162° |
| 2026-05-03 20:16 | 44.27136 | 9.08307 | 11139 ft | 262 kts | 146° |
| 2026-05-03 20:16 | 44.25686 | 9.09855 | 11068 ft | 264 kts | 145° |
| 2026-05-03 20:16 | 44.24221 | 9.11411 | 11003 ft | 263 kts | 145° |
| 2026-05-03 20:17 | 44.22796 | 9.12920 | 10932 ft | 254 kts | 146° |
| 2026-05-03 20:17 | 44.21395 | 9.14401 | 10892 ft | 252 kts | 146° |
| 2026-05-03 20:17 | 44.20001 | 9.15873 | 10837 ft | 252 kts | 146° |
| 2026-05-03 20:17 | 44.18605 | 9.17348 | 10784 ft | 251 kts | 146° |
| 2026-05-03 20:18 | 44.17215 | 9.18818 | 10730 ft | 251 kts | 146° |
| 2026-05-03 20:18 | 44.15823 | 9.20290 | 10665 ft | 251 kts | 146° |
| 2026-05-03 20:18 | 44.14433 | 9.21756 | 10618 ft | 251 kts | 146° |
| 2026-05-03 20:18 | 44.13044 | 9.23222 | 10473 ft | 251 kts | 146° |
| 2026-05-03 20:19 | 44.11724 | 9.24791 | 10284 ft | 250 kts | 131° |
| 2026-05-03 20:19 | 44.10910 | 9.26942 | 10231 ft | 257 kts | 106° |
| 2026-05-03 20:19 | 44.10875 | 9.29436 | 10176 ft | 263 kts | 78° |
| 2026-05-03 20:19 | 44.11691 | 9.31708 | 10126 ft | 267 kts | 49° |
| 2026-05-03 20:20 | 44.13192 | 9.33204 | 10068 ft | 269 kts | 19° |
| 2026-05-03 20:20 | 44.15025 | 9.33544 | 10008 ft | 267 kts | 350° |
| 2026-05-03 20:20 | 44.16847 | 9.33056 | 9953 ft | 267 kts | 346° |
| 2026-05-03 20:20 | 44.18667 | 9.32521 | 9891 ft | 267 kts | 346° |
| 2026-05-03 20:21 | 44.20484 | 9.31977 | 9836 ft | 267 kts | 343° |
| 2026-05-03 20:21 | 44.22181 | 9.30995 | 9768 ft | 263 kts | 325° |
| 2026-05-03 20:21 | 44.23652 | 9.29498 | 9705 ft | 262 kts | 320° |
| 2026-05-03 20:21 | 44.25099 | 9.27962 | 9640 ft | 261 kts | 320° |
| 2026-05-03 20:22 | 44.26517 | 9.26395 | 9581 ft | 259 kts | 312° |
| 2026-05-03 20:22 | 44.27593 | 9.24418 | 9516 ft | 254 kts | 294° |
| 2026-05-03 20:22 | 44.28171 | 9.22118 | 9465 ft | 250 kts | 276° |
| 2026-05-03 20:22 | 44.28243 | 9.19719 | 9409 ft | 247 kts | 264° |
| 2026-05-03 20:23 | 44.28170 | 9.17325 | 9349 ft | 247 kts | 265° |
| 2026-05-03 20:23 | 44.28102 | 9.14927 | 9293 ft | 247 kts | 265° |
| 2026-05-03 20:23 | 44.28039 | 9.12535 | 9236 ft | 247 kts | 265° |
| 2026-05-03 20:23 | 44.27978 | 9.10141 | 9180 ft | 247 kts | 265° |
| 2026-05-03 20:24 | 44.27916 | 9.07752 | 9135 ft | 247 kts | 264° |
| 2026-05-03 20:24 | 44.27851 | 9.05362 | 9080 ft | 246 kts | 264° |
| 2026-05-03 20:24 | 44.27784 | 9.02979 | 9023 ft | 246 kts | 264° |
| 2026-05-03 20:24 | 44.27717 | 9.00591 | 8967 ft | 246 kts | 264° |
| 2026-05-03 20:25 | 44.27650 | 8.98209 | 8915 ft | 246 kts | 265° |
| 2026-05-03 20:25 | 44.27584 | 8.95851 | 8859 ft | 246 kts | 264° |
| 2026-05-03 20:25 | 44.27516 | 8.93471 | 8803 ft | 246 kts | 264° |
| 2026-05-03 20:25 | 44.27448 | 8.91091 | 8746 ft | 246 kts | 264° |
| 2026-05-03 20:26 | 44.27378 | 8.88713 | 8690 ft | 245 kts | 264° |
| 2026-05-03 20:26 | 44.27307 | 8.86337 | 8635 ft | 245 kts | 264° |
| 2026-05-03 20:26 | 44.27238 | 8.83965 | 8505 ft | 245 kts | 264° |
| 2026-05-03 20:26 | 44.27171 | 8.81596 | 8233 ft | 244 kts | 264° |
| 2026-05-03 20:27 | 44.27104 | 8.79239 | 7944 ft | 241 kts | 264° |
| 2026-05-03 20:27 | 44.27036 | 8.76929 | 7626 ft | 237 kts | 264° |
| 2026-05-03 20:27 | 44.26968 | 8.74655 | 7313 ft | 232 kts | 264° |
| 2026-05-03 20:27 | 44.26901 | 8.72425 | 7008 ft | 228 kts | 265° |
| 2026-05-03 20:28 | 44.26883 | 8.70210 | 6637 ft | 230 kts | 273° |
| 2026-05-03 20:28 | 44.27248 | 8.68031 | 6284 ft | 230 kts | 282° |
| 2026-05-03 20:28 | 44.27665 | 8.65888 | 5940 ft | 228 kts | 282° |
| 2026-05-03 20:28 | 44.28074 | 8.63768 | 5617 ft | 224 kts | 281° |
| 2026-05-03 20:29 | 44.28508 | 8.61695 | 5307 ft | 223 kts | 289° |
| 2026-05-03 20:29 | 44.29531 | 8.60093 | 4993 ft | 228 kts | 330° |
| 2026-05-03 20:29 | 44.31094 | 8.59775 | 4650 ft | 232 kts | 9° |
| 2026-05-03 20:29 | 44.32644 | 8.60285 | 4302 ft | 225 kts | 15° |
| 2026-05-03 20:30 | 44.34113 | 8.60932 | 3920 ft | 217 kts | 28° |
| 2026-05-03 20:30 | 44.35282 | 8.62112 | 3600 ft | 199 kts | 50° |
| 2026-05-03 20:30 | 44.36061 | 8.63599 | 3351 ft | 184 kts | 66° |
| 2026-05-03 20:30 | 44.36681 | 8.65118 | 3065 ft | 177 kts | 66° |
| 2026-05-03 20:31 | 44.37284 | 8.66567 | 2808 ft | 168 kts | 66° |
| 2026-05-03 20:31 | 44.37850 | 8.67918 | 2562 ft | 156 kts | 64° |
| 2026-05-03 20:31 | 44.38385 | 8.69208 | 2341 ft | 151 kts | 63° |
| 2026-05-03 20:31 | 44.38906 | 8.70479 | 2104 ft | 149 kts | 62° |
| 2026-05-03 20:32 | 44.39418 | 8.71733 | 1898 ft | 148 kts | 62° |
| 2026-05-03 20:32 | 44.39928 | 8.72985 | 1703 ft | 147 kts | 63° |
| 2026-05-03 20:32 | 44.40433 | 8.74225 | 1472 ft | 146 kts | 62° |
| 2026-05-03 20:32 | 44.40937 | 8.75458 | 1265 ft | 145 kts | 60° |
| 2026-05-03 20:33 | 44.41439 | 8.76678 | 1063 ft | 145 kts | 60° |
| 2026-05-03 20:33 | 44.41838 | 8.77962 | 735 ft | 143 kts | 81° |
| 2026-05-03 20:33 | 44.41811 | 8.79333 | 578 ft | 140 kts | 94° |
| 2026-05-03 20:33 | 44.41704 | 8.80715 | 351 ft | 143 kts | 97° |
| 2026-05-03 20:34 | 44.41539 | 8.82058 | 223 ft | 142 kts | 98° |
| 2026-05-03 20:34 | 44.41311 | 8.83428 | 40 ft | 140 kts | 102° |
| 2026-05-03 20:34 | 44.41071 | 8.84687 | 26 ft | 122 kts | 103° |
| 2026-05-03 20:34 | 44.40946 | 8.85457 | 20 ft | 38 kts | 104° |
| 2026-05-03 20:35 | 44.40930 | 8.85536 | 20 ft | 0 kts | 106° |
| 2026-05-03 20:35 | 44.40928 | 8.85544 | 20 ft | 5 kts | 106° |
| 2026-05-03 20:35 | 44.40916 | 8.85616 | 21 ft | 7 kts | 102° |
| 2026-05-03 20:35 | 44.40891 | 8.85665 | 22 ft | 8 kts | 117° |
| 2026-05-03 20:36 | 44.40981 | 8.85671 | 20 ft | 26 kts | 310° |
| 2026-05-03 20:36 | 44.40961 | 8.85432 | 21 ft | 21 kts | 288° |
| 2026-05-03 20:36 | 44.41002 | 8.85236 | 19 ft | 21 kts | 303° |
| 2026-05-03 20:36 | 44.41087 | 8.85224 | 21 ft | 9 kts | 28° |
| 2026-05-03 20:37 | 44.41155 | 8.85253 | 20 ft | 16 kts | 15° |
| 2026-05-03 20:37 | 44.41272 | 8.85254 | 21 ft | 16 kts | 324° |
| 2026-05-03 20:37 | 44.41322 | 8.85124 | 20 ft | 15 kts | 278° |
| 2026-05-03 20:37 | 44.41353 | 8.85029 | 21 ft | 7 kts | 331° |
| 2026-05-03 20:38 | 44.41398 | 8.85031 | 20 ft | 6 kts | 13° |
| 2026-05-03 20:38 | 44.41416 | 8.85038 | 20 ft | 0 kts | 14° |